sensor_id;sensor_type;location;lat;lon;timestamp;P1;P2;P0
81998;PMS5003;71598;46.516;-122.928;2024-02-15T00:01:52;361;344;
81998;PMS5003;71598;46.516;-122.928;2024-02-15T00:04:16;335;322;
81998;PMS5003;71598;46.516;-122.928;2024-02-15T00:06:43;330;312;
81998;PMS5003;71598;46.516;-122.928;2024-02-15T00:09:07;324;310;
81998;PMS5003;71598;46.516;-122.928;2024-02-15T00:11:33;329;313;
81998;PMS5003;71598;46.516;-122.928;2024-02-15T00:13:58;324;304;
81998;PMS5003;71598;46.516;-122.928;2024-02-15T00:16:23;315;301;
81998;PMS5003;71598;46.516;-122.928;2024-02-15T00:18:48;309;298;
81998;PMS5003;71598;46.516;-122.928;2024-02-15T00:21:14;312;300;
81998;PMS5003;71598;46.516;-122.928;2024-02-15T00:23:41;313;298;
81998;PMS5003;71598;46.516;-122.928;2024-02-15T00:26:05;307;291;
81998;PMS5003;71598;46.516;-122.928;2024-02-15T00:28:32;285;272;
81998;PMS5003;71598;46.516;-122.928;2024-02-15T00:30:57;280;268;
81998;PMS5003;71598;46.516;-122.928;2024-02-15T00:33:22;276;267;
81998;PMS5003;71598;46.516;-122.928;2024-02-15T00:35:48;263;254;
81998;PMS5003;71598;46.516;-122.928;2024-02-15T00:38:13;265;254;
81998;PMS5003;71598;46.516;-122.928;2024-02-15T00:40:39;263;248;
81998;PMS5003;71598;46.516;-122.928;2024-02-15T00:43:04;271;258;
81998;PMS5003;71598;46.516;-122.928;2024-02-15T00:45:29;256;248;
81998;PMS5003;71598;46.516;-122.928;2024-02-15T00:47:55;252;243;
81998;PMS5003;71598;46.516;-122.928;2024-02-15T00:50:21;251;243;
81998;PMS5003;71598;46.516;-122.928;2024-02-15T00:52:46;239;229;
81998;PMS5003;71598;46.516;-122.928;2024-02-15T00:55:12;238;228;
81998;PMS5003;71598;46.516;-122.928;2024-02-15T00:57:36;230;222;
81998;PMS5003;71598;46.516;-122.928;2024-02-15T01:00:01;234;227;
81998;PMS5003;71598;46.516;-122.928;2024-02-15T01:02:27;228;221;
81998;PMS5003;71598;46.516;-122.928;2024-02-15T01:04:52;219;216;
81998;PMS5003;71598;46.516;-122.928;2024-02-15T01:07:19;223;214;
81998;PMS5003;71598;46.516;-122.928;2024-02-15T01:09:44;207;202;
81998;PMS5003;71598;46.516;-122.928;2024-02-15T01:12:09;202;197;
81998;PMS5003;71598;46.516;-122.928;2024-02-15T01:14:34;192;190;
81998;PMS5003;71598;46.516;-122.928;2024-02-15T01:17:00;200;193;
81998;PMS5003;71598;46.516;-122.928;2024-02-15T01:19:25;193;189;
81998;PMS5003;71598;46.516;-122.928;2024-02-15T01:21:52;193;188;
81998;PMS5003;71598;46.516;-122.928;2024-02-15T01:24:17;199;187;
81998;PMS5003;71598;46.516;-122.928;2024-02-15T01:26:42;187;183;
81998;PMS5003;71598;46.516;-122.928;2024-02-15T01:29:08;179;174;
81998;PMS5003;71598;46.516;-122.928;2024-02-15T01:31:33;171;166;
81998;PMS5003;71598;46.516;-122.928;2024-02-15T01:33:58;175;166;
81998;PMS5003;71598;46.516;-122.928;2024-02-15T01:36:23;174;166;
81998;PMS5003;71598;46.516;-122.928;2024-02-15T01:38:49;173;169;
81998;PMS5003;71598;46.516;-122.928;2024-02-15T01:41:14;169;162;
81998;PMS5003;71598;46.516;-122.928;2024-02-15T01:43:43;155;151;
81998;PMS5003;71598;46.516;-122.928;2024-02-15T01:46:07;173;166;
81998;PMS5003;71598;46.516;-122.928;2024-02-15T01:48:31;157;155;
81998;PMS5003;71598;46.516;-122.928;2024-02-15T01:50:56;163;160;
81998;PMS5003;71598;46.516;-122.928;2024-02-15T01:53:21;164;159;
81998;PMS5003;71598;46.516;-122.928;2024-02-15T01:55:47;150;143;
81998;PMS5003;71598;46.516;-122.928;2024-02-15T01:58:11;150;147;
81998;PMS5003;71598;46.516;-122.928;2024-02-15T02:00:37;156;152;
81998;PMS5003;71598;46.516;-122.928;2024-02-15T02:03:03;146;138;
81998;PMS5003;71598;46.516;-122.928;2024-02-15T02:05:29;142;133;
81998;PMS5003;71598;46.516;-122.928;2024-02-15T02:07:54;146;138;
81998;PMS5003;71598;46.516;-122.928;2024-02-15T02:10:19;153;143;
81998;PMS5003;71598;46.516;-122.928;2024-02-15T02:12:44;141;138;
81998;PMS5003;71598;46.516;-122.928;2024-02-15T02:15:10;133;128;
81998;PMS5003;71598;46.516;-122.928;2024-02-15T02:17:35;127;125;
81998;PMS5003;71598;46.516;-122.928;2024-02-15T02:20:01;133;128;
81998;PMS5003;71598;46.516;-122.928;2024-02-15T02:22:26;132;129;
81998;PMS5003;71598;46.516;-122.928;2024-02-15T02:25:00;132;124;
81998;PMS5003;71598;46.516;-122.928;2024-02-15T02:27:16;118;115;
81998;PMS5003;71598;46.516;-122.928;2024-02-15T02:29:42;123;119;
81998;PMS5003;71598;46.516;-122.928;2024-02-15T02:32:07;117;112;
81998;PMS5003;71598;46.516;-122.928;2024-02-15T02:34:32;119;114;
81998;PMS5003;71598;46.516;-122.928;2024-02-15T02:36:58;118;114;
81998;PMS5003;71598;46.516;-122.928;2024-02-15T02:39:23;122;115;
81998;PMS5003;71598;46.516;-122.928;2024-02-15T02:41:49;119;114;
81998;PMS5003;71598;46.516;-122.928;2024-02-15T02:44:14;111;107;
81998;PMS5003;71598;46.516;-122.928;2024-02-15T02:46:39;111;106;
81998;PMS5003;71598;46.516;-122.928;2024-02-15T02:49:04;111;110;
81998;PMS5003;71598;46.516;-122.928;2024-02-15T02:51:29;112;105;
81998;PMS5003;71598;46.516;-122.928;2024-02-15T02:53:55;110;107;
81998;PMS5003;71598;46.516;-122.928;2024-02-15T02:56:21;102;98;
81998;PMS5003;71598;46.516;-122.928;2024-02-15T02:58:46;98;96;
81998;PMS5003;71598;46.516;-122.928;2024-02-15T03:01:12;98;97;
81998;PMS5003;71598;46.516;-122.928;2024-02-15T03:03:37;96;94;
81998;PMS5003;71598;46.516;-122.928;2024-02-15T03:06:03;103;97;
81998;PMS5003;71598;46.516;-122.928;2024-02-15T03:08:28;97;94;
81998;PMS5003;71598;46.516;-122.928;2024-02-15T03:10:53;98;96;
81998;PMS5003;71598;46.516;-122.928;2024-02-15T03:13:20;102;95;
81998;PMS5003;71598;46.516;-122.928;2024-02-15T03:15:44;92;89;
81998;PMS5003;71598;46.516;-122.928;2024-02-15T03:18:10;90;88;
81998;PMS5003;71598;46.516;-122.928;2024-02-15T03:20:37;88;85;
81998;PMS5003;71598;46.516;-122.928;2024-02-15T03:23:00;84;82;
81998;PMS5003;71598;46.516;-122.928;2024-02-15T03:25:26;92;83;
81998;PMS5003;71598;46.516;-122.928;2024-02-15T03:27:54;87;84;
81998;PMS5003;71598;46.516;-122.928;2024-02-15T03:30:17;82;81;
81998;PMS5003;71598;46.516;-122.928;2024-02-15T03:32:42;78;78;
81998;PMS5003;71598;46.516;-122.928;2024-02-15T03:35:08;80;79;
81998;PMS5003;71598;46.516;-122.928;2024-02-15T03:37:32;80;77;
81998;PMS5003;71598;46.516;-122.928;2024-02-15T03:39:58;75;73;
81998;PMS5003;71598;46.516;-122.928;2024-02-15T03:42:23;76;73;
81998;PMS5003;71598;46.516;-122.928;2024-02-15T03:44:49;73;72;
81998;PMS5003;71598;46.516;-122.928;2024-02-15T03:47:14;70;69;
81998;PMS5003;71598;46.516;-122.928;2024-02-15T03:49:40;79;74;
81998;PMS5003;71598;46.516;-122.928;2024-02-15T03:52:05;71;69;
81998;PMS5003;71598;46.516;-122.928;2024-02-15T03:54:30;73;70;
81998;PMS5003;71598;46.516;-122.928;2024-02-15T03:56:57;73;71;
81998;PMS5003;71598;46.516;-122.928;2024-02-15T03:59:30;67;65;
81998;PMS5003;71598;46.516;-122.928;2024-02-15T04:01:47;66;64;
81998;PMS5003;71598;46.516;-122.928;2024-02-15T04:04:13;70;69;
81998;PMS5003;71598;46.516;-122.928;2024-02-15T04:06:39;67;63;
81998;PMS5003;71598;46.516;-122.928;2024-02-15T04:09:04;63;62;
81998;PMS5003;71598;46.516;-122.928;2024-02-15T04:11:29;61;59;
81998;PMS5003;71598;46.516;-122.928;2024-02-15T04:13:54;57;56;
81998;PMS5003;71598;46.516;-122.928;2024-02-15T04:16:20;63;62;
81998;PMS5003;71598;46.516;-122.928;2024-02-15T04:18:45;61;58;
81998;PMS5003;71598;46.516;-122.928;2024-02-15T04:21:11;60;59;
81998;PMS5003;71598;46.516;-122.928;2024-02-15T04:23:37;61;60;
81998;PMS5003;71598;46.516;-122.928;2024-02-15T04:26:02;62;61;
81998;PMS5003;71598;46.516;-122.928;2024-02-15T04:28:28;64;63;
81998;PMS5003;71598;46.516;-122.928;2024-02-15T04:30:53;58;57;
81998;PMS5003;71598;46.516;-122.928;2024-02-15T04:33:18;62;61;
81998;PMS5003;71598;46.516;-122.928;2024-02-15T04:35:44;54;53;
81998;PMS5003;71598;46.516;-122.928;2024-02-15T04:38:10;61;60;
81998;PMS5003;71598;46.516;-122.928;2024-02-15T04:40:35;54;53;
81998;PMS5003;71598;46.516;-122.928;2024-02-15T04:43:01;55;53;
81998;PMS5003;71598;46.516;-122.928;2024-02-15T04:45:26;53;52;
81998;PMS5003;71598;46.516;-122.928;2024-02-15T04:47:52;55;55;
81998;PMS5003;71598;46.516;-122.928;2024-02-15T04:50:17;57;54;
81998;PMS5003;71598;46.516;-122.928;2024-02-15T04:52:42;53;52;
81998;PMS5003;71598;46.516;-122.928;2024-02-15T04:55:08;49;49;
81998;PMS5003;71598;46.516;-122.928;2024-02-15T04:57:34;54;53;
81998;PMS5003;71598;46.516;-122.928;2024-02-15T04:59:58;46;44;
81998;PMS5003;71598;46.516;-122.928;2024-02-15T05:02:24;50;49;
81998;PMS5003;71598;46.516;-122.928;2024-02-15T05:04:51;46;46;
81998;PMS5003;71598;46.516;-122.928;2024-02-15T05:07:15;48;47;
81998;PMS5003;71598;46.516;-122.928;2024-02-15T05:09:40;50;47;
81998;PMS5003;71598;46.516;-122.928;2024-02-15T05:12:06;51;49;
81998;PMS5003;71598;46.516;-122.928;2024-02-15T05:14:31;45;43;
81998;PMS5003;71598;46.516;-122.928;2024-02-15T05:16:57;47;47;
81998;PMS5003;71598;46.516;-122.928;2024-02-15T05:19:22;50;49;
81998;PMS5003;71598;46.516;-122.928;2024-02-15T05:21:48;49;47;
81998;PMS5003;71598;46.516;-122.928;2024-02-15T05:24:13;42;42;
81998;PMS5003;71598;46.516;-122.928;2024-02-15T05:26:38;47;46;
81998;PMS5003;71598;46.516;-122.928;2024-02-15T05:29:04;39;39;
81998;PMS5003;71598;46.516;-122.928;2024-02-15T05:31:30;42;42;
81998;PMS5003;71598;46.516;-122.928;2024-02-15T05:33:54;45;43;
81998;PMS5003;71598;46.516;-122.928;2024-02-15T05:36:20;42;41;
81998;PMS5003;71598;46.516;-122.928;2024-02-15T05:38:46;44;41;
81998;PMS5003;71598;46.516;-122.928;2024-02-15T05:41:11;42;41;
81998;PMS5003;71598;46.516;-122.928;2024-02-15T05:43:37;41;41;
81998;PMS5003;71598;46.516;-122.928;2024-02-15T05:46:02;42;40;
81998;PMS5003;71598;46.516;-122.928;2024-02-15T05:48:28;39;38;
81998;PMS5003;71598;46.516;-122.928;2024-02-15T05:50:55;38;38;
81998;PMS5003;71598;46.516;-122.928;2024-02-15T05:53:19;35;34;
81998;PMS5003;71598;46.516;-122.928;2024-02-15T05:55:44;39;39;
81998;PMS5003;71598;46.516;-122.928;2024-02-15T05:58:10;44;42;
81998;PMS5003;71598;46.516;-122.928;2024-02-15T06:00:36;35;33;
81998;PMS5003;71598;46.516;-122.928;2024-02-15T06:03:00;32;30;
81998;PMS5003;71598;46.516;-122.928;2024-02-15T06:05:27;35;35;
81998;PMS5003;71598;46.516;-122.928;2024-02-15T06:07:51;39;37;
81998;PMS5003;71598;46.516;-122.928;2024-02-15T06:10:16;35;33;
81998;PMS5003;71598;46.516;-122.928;2024-02-15T06:12:42;39;38;
81998;PMS5003;71598;46.516;-122.928;2024-02-15T06:15:07;33;33;
81998;PMS5003;71598;46.516;-122.928;2024-02-15T06:17:32;35;34;
81998;PMS5003;71598;46.516;-122.928;2024-02-15T06:19:58;35;35;
81998;PMS5003;71598;46.516;-122.928;2024-02-15T06:22:23;37;36;
81998;PMS5003;71598;46.516;-122.928;2024-02-15T06:24:49;39;37;
81998;PMS5003;71598;46.516;-122.928;2024-02-15T06:27:14;32;31;
81998;PMS5003;71598;46.516;-122.928;2024-02-15T06:29:39;37;36;
81998;PMS5003;71598;46.516;-122.928;2024-02-15T06:32:05;34;34;
81998;PMS5003;71598;46.516;-122.928;2024-02-15T06:34:30;35;34;
81998;PMS5003;71598;46.516;-122.928;2024-02-15T06:36:57;34;33;
81998;PMS5003;71598;46.516;-122.928;2024-02-15T06:39:21;34;33;
81998;PMS5003;71598;46.516;-122.928;2024-02-15T06:41:46;38;38;
81998;PMS5003;71598;46.516;-122.928;2024-02-15T06:44:11;36;35;
81998;PMS5003;71598;46.516;-122.928;2024-02-15T06:46:37;38;38;
81998;PMS5003;71598;46.516;-122.928;2024-02-15T06:49:02;40;39;
81998;PMS5003;71598;46.516;-122.928;2024-02-15T06:51:27;40;39;
81998;PMS5003;71598;46.516;-122.928;2024-02-15T06:53:53;43;41;
81998;PMS5003;71598;46.516;-122.928;2024-02-15T06:56:18;40;38;
81998;PMS5003;71598;46.516;-122.928;2024-02-15T06:58:45;40;37;
81998;PMS5003;71598;46.516;-122.928;2024-02-15T07:01:09;38;36;
81998;PMS5003;71598;46.516;-122.928;2024-02-15T07:03:34;46;41;
81998;PMS5003;71598;46.516;-122.928;2024-02-15T07:06:00;40;39;
81998;PMS5003;71598;46.516;-122.928;2024-02-15T07:08:25;40;39;
81998;PMS5003;71598;46.516;-122.928;2024-02-15T07:10:51;36;35;
81998;PMS5003;71598;46.516;-122.928;2024-02-15T07:13:17;40;40;
81998;PMS5003;71598;46.516;-122.928;2024-02-15T07:15:41;39;39;
81998;PMS5003;71598;46.516;-122.928;2024-02-15T07:18:07;41;41;
81998;PMS5003;71598;46.516;-122.928;2024-02-15T07:20:33;42;41;
81998;PMS5003;71598;46.516;-122.928;2024-02-15T07:22:58;46;46;
81998;PMS5003;71598;46.516;-122.928;2024-02-15T07:25:23;43;43;
81998;PMS5003;71598;46.516;-122.928;2024-02-15T07:27:49;46;46;
81998;PMS5003;71598;46.516;-122.928;2024-02-15T07:30:14;53;52;
81998;PMS5003;71598;46.516;-122.928;2024-02-15T07:32:40;51;50;
81998;PMS5003;71598;46.516;-122.928;2024-02-15T07:35:05;48;46;
81998;PMS5003;71598;46.516;-122.928;2024-02-15T07:37:30;53;52;
81998;PMS5003;71598;46.516;-122.928;2024-02-15T07:39:56;49;47;
81998;PMS5003;71598;46.516;-122.928;2024-02-15T07:42:22;45;45;
81998;PMS5003;71598;46.516;-122.928;2024-02-15T07:44:47;47;45;
81998;PMS5003;71598;46.516;-122.928;2024-02-15T07:47:12;51;50;
81998;PMS5003;71598;46.516;-122.928;2024-02-15T07:49:38;52;50;
81998;PMS5003;71598;46.516;-122.928;2024-02-15T07:52:04;51;50;
81998;PMS5003;71598;46.516;-122.928;2024-02-15T07:54:29;54;54;
81998;PMS5003;71598;46.516;-122.928;2024-02-15T07:56:54;57;55;
81998;PMS5003;71598;46.516;-122.928;2024-02-15T07:59:21;45;45;
81998;PMS5003;71598;46.516;-122.928;2024-02-15T08:01:45;50;47;
81998;PMS5003;71598;46.516;-122.928;2024-02-15T08:04:11;46;46;
81998;PMS5003;71598;46.516;-122.928;2024-02-15T08:06:37;55;54;
81998;PMS5003;71598;46.516;-122.928;2024-02-15T08:09:02;57;54;
81998;PMS5003;71598;46.516;-122.928;2024-02-15T08:11:28;56;51;
81998;PMS5003;71598;46.516;-122.928;2024-02-15T08:13:54;57;55;
81998;PMS5003;71598;46.516;-122.928;2024-02-15T08:16:19;56;56;
81998;PMS5003;71598;46.516;-122.928;2024-02-15T08:18:44;61;57;
81998;PMS5003;71598;46.516;-122.928;2024-02-15T08:21:09;59;58;
81998;PMS5003;71598;46.516;-122.928;2024-02-15T08:23:35;67;64;
81998;PMS5003;71598;46.516;-122.928;2024-02-15T08:26:00;64;62;
81998;PMS5003;71598;46.516;-122.928;2024-02-15T08:28:26;68;65;
81998;PMS5003;71598;46.516;-122.928;2024-02-15T08:30:52;61;58;
81998;PMS5003;71598;46.516;-122.928;2024-02-15T08:33:17;65;64;
81998;PMS5003;71598;46.516;-122.928;2024-02-15T08:35:42;68;66;
81998;PMS5003;71598;46.516;-122.928;2024-02-15T08:38:08;70;67;
81998;PMS5003;71598;46.516;-122.928;2024-02-15T08:40:33;72;71;
81998;PMS5003;71598;46.516;-122.928;2024-02-15T08:42:58;67;66;
81998;PMS5003;71598;46.516;-122.928;2024-02-15T08:45:23;71;68;
81998;PMS5003;71598;46.516;-122.928;2024-02-15T08:47:49;74;72;
81998;PMS5003;71598;46.516;-122.928;2024-02-15T08:50:14;71;69;
81998;PMS5003;71598;46.516;-122.928;2024-02-15T08:52:40;77;74;
81998;PMS5003;71598;46.516;-122.928;2024-02-15T08:55:07;77;76;
81998;PMS5003;71598;46.516;-122.928;2024-02-15T08:57:31;77;75;
81998;PMS5003;71598;46.516;-122.928;2024-02-15T08:59:58;76;73;
81998;PMS5003;71598;46.516;-122.928;2024-02-15T09:02:23;79;76;
81998;PMS5003;71598;46.516;-122.928;2024-02-15T09:04:48;84;81;
81998;PMS5003;71598;46.516;-122.928;2024-02-15T09:07:14;79;76;
81998;PMS5003;71598;46.516;-122.928;2024-02-15T09:09:39;81;79;
81998;PMS5003;71598;46.516;-122.928;2024-02-15T09:12:05;88;85;
81998;PMS5003;71598;46.516;-122.928;2024-02-15T09:14:30;93;90;
81998;PMS5003;71598;46.516;-122.928;2024-02-15T09:16:55;94;89;
81998;PMS5003;71598;46.516;-122.928;2024-02-15T09:19:20;95;92;
81998;PMS5003;71598;46.516;-122.928;2024-02-15T09:21:46;90;88;
81998;PMS5003;71598;46.516;-122.928;2024-02-15T09:24:11;86;85;
81998;PMS5003;71598;46.516;-122.928;2024-02-15T09:26:36;94;92;
81998;PMS5003;71598;46.516;-122.928;2024-02-15T09:29:01;98;92;
81998;PMS5003;71598;46.516;-122.928;2024-02-15T09:31:27;100;92;
81998;PMS5003;71598;46.516;-122.928;2024-02-15T09:33:53;98;96;
81998;PMS5003;71598;46.516;-122.928;2024-02-15T09:36:18;103;97;
81998;PMS5003;71598;46.516;-122.928;2024-02-15T09:38:43;105;102;
81998;PMS5003;71598;46.516;-122.928;2024-02-15T09:41:09;103;99;
81998;PMS5003;71598;46.516;-122.928;2024-02-15T09:43:35;100;98;
81998;PMS5003;71598;46.516;-122.928;2024-02-15T09:46:00;100;96;
81998;PMS5003;71598;46.516;-122.928;2024-02-15T09:48:26;102;98;
81998;PMS5003;71598;46.516;-122.928;2024-02-15T09:50:52;99;98;
81998;PMS5003;71598;46.516;-122.928;2024-02-15T09:53:18;103;98;
81998;PMS5003;71598;46.516;-122.928;2024-02-15T09:55:42;107;101;
81998;PMS5003;71598;46.516;-122.928;2024-02-15T09:58:08;107;104;
81998;PMS5003;71598;46.516;-122.928;2024-02-15T10:00:34;115;109;
81998;PMS5003;71598;46.516;-122.928;2024-02-15T10:02:58;103;98;
81998;PMS5003;71598;46.516;-122.928;2024-02-15T10:05:23;100;95;
81998;PMS5003;71598;46.516;-122.928;2024-02-15T10:07:49;105;101;
81998;PMS5003;71598;46.516;-122.928;2024-02-15T10:10:15;101;101;
81998;PMS5003;71598;46.516;-122.928;2024-02-15T10:12:39;103;101;
81998;PMS5003;71598;46.516;-122.928;2024-02-15T10:15:05;100;94;
81998;PMS5003;71598;46.516;-122.928;2024-02-15T10:17:30;121;117;
81998;PMS5003;71598;46.516;-122.928;2024-02-15T10:20:07;105;103;
81998;PMS5003;71598;46.516;-122.928;2024-02-15T10:22:23;110;106;
81998;PMS5003;71598;46.516;-122.928;2024-02-15T10:24:47;117;113;
81998;PMS5003;71598;46.516;-122.928;2024-02-15T10:27:12;115;112;
81998;PMS5003;71598;46.516;-122.928;2024-02-15T10:29:38;112;109;
81998;PMS5003;71598;46.516;-122.928;2024-02-15T10:32:04;115;108;
81998;PMS5003;71598;46.516;-122.928;2024-02-15T10:34:29;115;109;
81998;PMS5003;71598;46.516;-122.928;2024-02-15T10:36:54;110;108;
81998;PMS5003;71598;46.516;-122.928;2024-02-15T10:39:19;113;108;
81998;PMS5003;71598;46.516;-122.928;2024-02-15T10:41:45;113;110;
81998;PMS5003;71598;46.516;-122.928;2024-02-15T10:44:10;113;110;
81998;PMS5003;71598;46.516;-122.928;2024-02-15T10:46:35;119;114;
81998;PMS5003;71598;46.516;-122.928;2024-02-15T10:49:01;109;106;
81998;PMS5003;71598;46.516;-122.928;2024-02-15T10:51:26;108;103;
81998;PMS5003;71598;46.516;-122.928;2024-02-15T10:53:55;115;109;
81998;PMS5003;71598;46.516;-122.928;2024-02-15T10:56:18;116;110;
81998;PMS5003;71598;46.516;-122.928;2024-02-15T10:58:45;110;108;
81998;PMS5003;71598;46.516;-122.928;2024-02-15T11:01:09;109;106;
81998;PMS5003;71598;46.516;-122.928;2024-02-15T11:03:34;120;116;
81998;PMS5003;71598;46.516;-122.928;2024-02-15T11:06:00;104;104;
81998;PMS5003;71598;46.516;-122.928;2024-02-15T11:08:25;110;105;
81998;PMS5003;71598;46.516;-122.928;2024-02-15T11:10:50;106;103;
81998;PMS5003;71598;46.516;-122.928;2024-02-15T11:13:15;114;112;
81998;PMS5003;71598;46.516;-122.928;2024-02-15T11:15:42;107;104;
81998;PMS5003;71598;46.516;-122.928;2024-02-15T11:18:07;105;103;
81998;PMS5003;71598;46.516;-122.928;2024-02-15T11:20:54;106;103;
81998;PMS5003;71598;46.516;-122.928;2024-02-15T11:22:58;112;102;
81998;PMS5003;71598;46.516;-122.928;2024-02-15T11:25:27;111;108;
81998;PMS5003;71598;46.516;-122.928;2024-02-15T11:27:48;113;109;
81998;PMS5003;71598;46.516;-122.928;2024-02-15T11:30:15;102;99;
81998;PMS5003;71598;46.516;-122.928;2024-02-15T11:32:41;110;105;
81998;PMS5003;71598;46.516;-122.928;2024-02-15T11:35:06;111;107;
81998;PMS5003;71598;46.516;-122.928;2024-02-15T11:37:50;101;98;
81998;PMS5003;71598;46.516;-122.928;2024-02-15T11:39:59;110;104;
81998;PMS5003;71598;46.516;-122.928;2024-02-15T11:42:29;110;108;
81998;PMS5003;71598;46.516;-122.928;2024-02-15T11:44:47;100;98;
81998;PMS5003;71598;46.516;-122.928;2024-02-15T11:47:12;100;98;
81998;PMS5003;71598;46.516;-122.928;2024-02-15T11:49:38;105;102;
81998;PMS5003;71598;46.516;-122.928;2024-02-15T11:52:08;106;100;
81998;PMS5003;71598;46.516;-122.928;2024-02-15T11:54:29;101;98;
81998;PMS5003;71598;46.516;-122.928;2024-02-15T11:56:55;105;102;
81998;PMS5003;71598;46.516;-122.928;2024-02-15T11:59:20;105;101;
81998;PMS5003;71598;46.516;-122.928;2024-02-15T12:01:46;107;98;
81998;PMS5003;71598;46.516;-122.928;2024-02-15T12:04:10;100;95;
81998;PMS5003;71598;46.516;-122.928;2024-02-15T12:06:36;97;94;
81998;PMS5003;71598;46.516;-122.928;2024-02-15T12:09:02;95;92;
81998;PMS5003;71598;46.516;-122.928;2024-02-15T12:11:27;97;96;
81998;PMS5003;71598;46.516;-122.928;2024-02-15T12:13:53;99;93;
81998;PMS5003;71598;46.516;-122.928;2024-02-15T12:16:18;100;100;
81998;PMS5003;71598;46.516;-122.928;2024-02-15T12:18:44;97;94;
81998;PMS5003;71598;46.516;-122.928;2024-02-15T12:21:10;85;83;
81998;PMS5003;71598;46.516;-122.928;2024-02-15T12:23:37;100;96;
81998;PMS5003;71598;46.516;-122.928;2024-02-15T12:26:01;100;95;
81998;PMS5003;71598;46.516;-122.928;2024-02-15T12:28:27;95;93;
81998;PMS5003;71598;46.516;-122.928;2024-02-15T12:30:55;95;92;
81998;PMS5003;71598;46.516;-122.928;2024-02-15T12:33:18;90;88;
81998;PMS5003;71598;46.516;-122.928;2024-02-15T12:35:44;88;87;
81998;PMS5003;71598;46.516;-122.928;2024-02-15T12:38:09;88;83;
81998;PMS5003;71598;46.516;-122.928;2024-02-15T12:40:35;86;82;
81998;PMS5003;71598;46.516;-122.928;2024-02-15T12:43:00;84;82;
81998;PMS5003;71598;46.516;-122.928;2024-02-15T12:45:25;81;79;
81998;PMS5003;71598;46.516;-122.928;2024-02-15T12:47:51;76;75;
81998;PMS5003;71598;46.516;-122.928;2024-02-15T12:50:17;81;78;
81998;PMS5003;71598;46.516;-122.928;2024-02-15T12:52:42;78;77;
81998;PMS5003;71598;46.516;-122.928;2024-02-15T12:55:11;81;80;
81998;PMS5003;71598;46.516;-122.928;2024-02-15T12:57:33;87;84;
81998;PMS5003;71598;46.516;-122.928;2024-02-15T12:59:59;88;84;
81998;PMS5003;71598;46.516;-122.928;2024-02-15T13:02:25;77;76;
81998;PMS5003;71598;46.516;-122.928;2024-02-15T13:04:49;80;76;
81998;PMS5003;71598;46.516;-122.928;2024-02-15T13:07:14;78;76;
81998;PMS5003;71598;46.516;-122.928;2024-02-15T13:09:40;78;77;
81998;PMS5003;71598;46.516;-122.928;2024-02-15T13:12:06;83;77;
81998;PMS5003;71598;46.516;-122.928;2024-02-15T13:14:31;85;82;
81998;PMS5003;71598;46.516;-122.928;2024-02-15T13:16:56;84;78;
81998;PMS5003;71598;46.516;-122.928;2024-02-15T13:19:21;91;87;
81998;PMS5003;71598;46.516;-122.928;2024-02-15T13:21:46;90;83;
81998;PMS5003;71598;46.516;-122.928;2024-02-15T13:24:12;86;85;
81998;PMS5003;71598;46.516;-122.928;2024-02-15T13:26:37;88;81;
81998;PMS5003;71598;46.516;-122.928;2024-02-15T13:29:02;85;81;
81998;PMS5003;71598;46.516;-122.928;2024-02-15T13:31:28;82;80;
81998;PMS5003;71598;46.516;-122.928;2024-02-15T13:33:53;88;83;
81998;PMS5003;71598;46.516;-122.928;2024-02-15T13:36:18;82;79;
81998;PMS5003;71598;46.516;-122.928;2024-02-15T13:38:43;86;83;
81998;PMS5003;71598;46.516;-122.928;2024-02-15T13:41:09;89;85;
81998;PMS5003;71598;46.516;-122.928;2024-02-15T13:43:34;82;77;
81998;PMS5003;71598;46.516;-122.928;2024-02-15T13:46:00;77;75;
81998;PMS5003;71598;46.516;-122.928;2024-02-15T13:48:26;84;80;
81998;PMS5003;71598;46.516;-122.928;2024-02-15T13:50:51;83;78;
81998;PMS5003;71598;46.516;-122.928;2024-02-15T13:53:17;80;78;
81998;PMS5003;71598;46.516;-122.928;2024-02-15T13:55:42;83;81;
81998;PMS5003;71598;46.516;-122.928;2024-02-15T13:58:08;75;75;
81998;PMS5003;71598;46.516;-122.928;2024-02-15T14:00:33;79;76;
81998;PMS5003;71598;46.516;-122.928;2024-02-15T14:03:01;78;74;
81998;PMS5003;71598;46.516;-122.928;2024-02-15T14:05:26;72;68;
81998;PMS5003;71598;46.516;-122.928;2024-02-15T14:07:51;74;68;
81998;PMS5003;71598;46.516;-122.928;2024-02-15T14:10:16;74;73;
81998;PMS5003;71598;46.516;-122.928;2024-02-15T14:12:42;74;72;
81998;PMS5003;71598;46.516;-122.928;2024-02-15T14:15:07;70;68;
81998;PMS5003;71598;46.516;-122.928;2024-02-15T14:17:33;74;70;
81998;PMS5003;71598;46.516;-122.928;2024-02-15T14:19:58;68;65;
81998;PMS5003;71598;46.516;-122.928;2024-02-15T14:22:24;65;63;
81998;PMS5003;71598;46.516;-122.928;2024-02-15T14:24:49;68;64;
81998;PMS5003;71598;46.516;-122.928;2024-02-15T14:27:15;65;64;
81998;PMS5003;71598;46.516;-122.928;2024-02-15T14:29:40;62;62;
81998;PMS5003;71598;46.516;-122.928;2024-02-15T14:32:06;63;62;
81998;PMS5003;71598;46.516;-122.928;2024-02-15T14:34:32;68;66;
81998;PMS5003;71598;46.516;-122.928;2024-02-15T14:36:58;57;55;
81998;PMS5003;71598;46.516;-122.928;2024-02-15T14:39:23;65;62;
81998;PMS5003;71598;46.516;-122.928;2024-02-15T14:41:49;65;62;
81998;PMS5003;71598;46.516;-122.928;2024-02-15T14:44:14;64;57;
81998;PMS5003;71598;46.516;-122.928;2024-02-15T14:46:40;64;61;
81998;PMS5003;71598;46.516;-122.928;2024-02-15T14:49:05;56;53;
81998;PMS5003;71598;46.516;-122.928;2024-02-15T14:51:30;59;56;
81998;PMS5003;71598;46.516;-122.928;2024-02-15T14:53:56;55;51;
81998;PMS5003;71598;46.516;-122.928;2024-02-15T14:56:21;56;56;
81998;PMS5003;71598;46.516;-122.928;2024-02-15T14:58:47;58;54;
81998;PMS5003;71598;46.516;-122.928;2024-02-15T15:01:12;53;52;
81998;PMS5003;71598;46.516;-122.928;2024-02-15T15:03:39;56;55;
81998;PMS5003;71598;46.516;-122.928;2024-02-15T15:06:03;51;51;
81998;PMS5003;71598;46.516;-122.928;2024-02-15T15:08:29;53;48;